createdAt,value
2023-07-29T00:01:05.139Z,20.50
2023-07-29T00:03:33.736Z,20.50
2023-07-29T00:06:02.069Z,20.40
2023-07-29T00:08:30.289Z,20.40
2023-07-29T00:10:58.713Z,20.40
2023-07-29T00:13:26.994Z,20.30
2023-07-29T00:15:57.597Z,20.30
2023-07-29T00:18:25.905Z,20.30
2023-07-29T00:20:54.237Z,20.30
2023-07-29T00:23:22.766Z,20.20
2023-07-29T00:25:50.986Z,20.20
2023-07-29T00:28:22.264Z,20.20
2023-07-29T00:30:51.725Z,20.10
2023-07-29T00:33:22.521Z,20.10
2023-07-29T00:35:50.772Z,20.10
2023-07-29T00:38:19.726Z,20.10
2023-07-29T00:40:48.622Z,20.10
2023-07-29T00:43:17.585Z,20.00
2023-07-29T00:45:47.388Z,20.00
2023-07-29T00:48:16.960Z,20.00
2023-07-29T00:50:46.659Z,20.00
2023-07-29T00:53:17.844Z,19.90
2023-07-29T00:55:47.718Z,19.90
2023-07-29T00:58:17.220Z,19.90
2023-07-29T01:00:46.047Z,19.90
2023-07-29T01:03:15.120Z,19.90
2023-07-29T01:05:58.197Z,19.90
2023-07-29T01:08:33.468Z,19.90
2023-07-29T01:11:16.184Z,19.80
2023-07-29T01:13:53.880Z,19.80
2023-07-29T01:16:28.025Z,19.80
2023-07-29T01:18:58.721Z,19.70
2023-07-29T01:21:30.016Z,19.70
2023-07-29T01:24:02.447Z,19.70
2023-07-29T01:26:30.578Z,19.80
2023-07-29T01:28:59.750Z,19.70
2023-07-29T01:31:35.175Z,19.70
2023-07-29T01:34:11.346Z,19.70
2023-07-29T01:36:41.902Z,19.70
2023-07-29T01:39:13.755Z,19.70
2023-07-29T01:41:43.030Z,19.60
2023-07-29T01:44:12.756Z,19.60
2023-07-29T01:46:41.186Z,19.60
2023-07-29T01:49:09.405Z,19.60
2023-07-29T01:51:37.579Z,19.60
2023-07-29T01:54:05.939Z,19.50
2023-07-29T01:56:35.806Z,19.50
2023-07-29T01:59:04.862Z,19.50
2023-07-29T02:01:33.450Z,19.50
2023-07-29T02:04:01.678Z,19.50
2023-07-29T02:06:30.173Z,19.60
2023-07-29T02:08:58.617Z,19.60
2023-07-29T02:11:28.918Z,19.60
2023-07-29T02:13:59.590Z,19.60
2023-07-29T02:16:28.112Z,19.60
2023-07-29T02:18:56.776Z,19.50
2023-07-29T02:21:25.477Z,19.60
2023-07-29T02:23:53.835Z,19.50
2023-07-29T02:26:22.154Z,19.40
2023-07-29T02:28:50.704Z,19.40
2023-07-29T02:31:23.237Z,19.30
2023-07-29T02:33:51.632Z,19.30
2023-07-29T02:36:21.306Z,19.20
2023-07-29T02:38:49.688Z,19.20
2023-07-29T02:41:18.214Z,19.20
2023-07-29T02:43:50.207Z,19.20
2023-07-29T02:46:18.548Z,19.20
2023-07-29T02:48:48.638Z,19.20
2023-07-29T02:51:16.790Z,19.20
2023-07-29T02:53:45.214Z,19.20
2023-07-29T02:56:13.368Z,19.20
2023-07-29T02:58:41.842Z,19.10
2023-07-29T03:01:11.076Z,19.10
2023-07-29T03:03:40.212Z,19.10
2023-07-29T03:06:16.652Z,19.10
2023-07-29T03:08:44.924Z,19.10
2023-07-29T03:11:16.814Z,19.10
2023-07-29T03:13:45.645Z,19.10
2023-07-29T03:16:16.375Z,19.10
2023-07-29T03:18:51.394Z,19.10
2023-07-29T03:21:21.405Z,19.20
2023-07-29T03:23:49.980Z,19.10
2023-07-29T03:26:18.635Z,19.10
2023-07-29T03:28:47.052Z,19.10
2023-07-29T03:31:15.573Z,19.20
2023-07-29T03:33:44.376Z,19.20
2023-07-29T03:36:12.979Z,19.20
2023-07-29T03:38:42.764Z,19.20
2023-07-29T03:41:12.020Z,19.20
2023-07-29T03:43:40.363Z,19.20
2023-07-29T03:46:11.732Z,19.20
2023-07-29T03:48:41.857Z,19.20
2023-07-29T03:51:10.315Z,19.20
2023-07-29T03:53:38.573Z,19.20
2023-07-29T03:56:08.972Z,19.20
2023-07-29T03:58:37.323Z,19.20
2023-07-29T04:01:05.624Z,19.20
2023-07-29T04:03:35.624Z,19.20
2023-07-29T04:06:04.300Z,19.20
2023-07-29T04:08:32.747Z,19.20
2023-07-29T04:11:01.143Z,19.20
2023-07-29T04:13:30.732Z,19.30
2023-07-29T04:15:59.115Z,19.40
2023-07-29T04:18:27.568Z,19.50
2023-07-29T04:20:55.792Z,19.50
2023-07-29T04:23:24.398Z,19.60
2023-07-29T04:25:52.939Z,19.70
2023-07-29T04:28:21.697Z,19.90
2023-07-29T04:30:51.348Z,20.20
2023-07-29T04:33:19.962Z,20.40
2023-07-29T04:35:48.329Z,20.60
2023-07-29T04:38:16.503Z,20.80
2023-07-29T04:40:44.811Z,21.20
2023-07-29T04:43:13.037Z,21.70
2023-07-29T04:45:45.674Z,22.00
2023-07-29T04:48:15.586Z,22.00
2023-07-29T04:50:43.771Z,22.10
2023-07-29T04:53:11.977Z,22.30
2023-07-29T04:55:40.450Z,22.40
2023-07-29T04:58:09.481Z,22.50
2023-07-29T05:00:38.432Z,22.50
2023-07-29T05:03:07.682Z,22.50
2023-07-29T05:05:37.650Z,22.60
2023-07-29T05:08:06.147Z,22.60
2023-07-29T05:10:34.602Z,22.50
2023-07-29T05:13:02.946Z,22.50
2023-07-29T05:15:31.479Z,22.40
2023-07-29T05:17:59.803Z,22.40
2023-07-29T05:20:28.258Z,22.50
2023-07-29T05:22:57.817Z,22.50
2023-07-29T05:25:26.631Z,22.70
2023-07-29T05:27:54.885Z,22.80
2023-07-29T05:30:23.103Z,22.90
2023-07-29T05:32:51.789Z,23.00
2023-07-29T05:35:20.176Z,23.10
2023-07-29T05:37:48.316Z,23.10
2023-07-29T05:40:18.404Z,23.00
2023-07-29T05:42:48.929Z,23.10
2023-07-29T05:45:17.312Z,23.10
2023-07-29T05:47:45.606Z,23.30
2023-07-29T05:50:13.757Z,23.50
2023-07-29T05:52:42.461Z,23.70
2023-07-29T05:55:11.864Z,23.80
2023-07-29T05:57:44.250Z,24.00
2023-07-29T06:00:13.802Z,24.10
2023-07-29T06:02:42.982Z,24.20
2023-07-29T06:05:15.669Z,24.40
2023-07-29T06:07:46.268Z,24.70
2023-07-29T06:10:18.542Z,25.10
2023-07-29T06:12:48.810Z,25.40
2023-07-29T06:15:17.644Z,25.80
2023-07-29T06:17:45.956Z,26.10
2023-07-29T06:20:14.451Z,26.40
2023-07-29T06:22:43.995Z,26.60
2023-07-29T06:25:12.289Z,26.90
2023-07-29T06:27:40.793Z,27.00
2023-07-29T06:30:11.215Z,27.10
2023-07-29T06:32:39.619Z,27.10
2023-07-29T06:35:08.555Z,27.00
2023-07-29T06:37:36.931Z,27.00
2023-07-29T06:40:05.736Z,27.10
2023-07-29T06:42:33.901Z,27.20
2023-07-29T06:45:02.099Z,27.40
2023-07-29T06:47:31.830Z,27.50
2023-07-29T06:50:00.045Z,27.80
2023-07-29T06:52:28.259Z,28.00
2023-07-29T06:54:56.678Z,28.20
2023-07-29T06:57:25.264Z,28.30
2023-07-29T06:59:53.429Z,28.50
2023-07-29T07:02:21.698Z,28.40
2023-07-29T07:04:51.770Z,28.20
2023-07-29T07:07:19.999Z,27.90
2023-07-29T07:09:48.141Z,27.60
2023-07-29T07:12:16.466Z,27.40
2023-07-29T07:14:44.622Z,27.20
2023-07-29T07:17:13.675Z,27.00
2023-07-29T07:19:42.062Z,26.90
2023-07-29T07:22:11.858Z,26.80
2023-07-29T07:24:40.074Z,26.80
2023-07-29T07:27:08.570Z,26.90
2023-07-29T07:29:36.759Z,27.00
2023-07-29T07:32:05.474Z,27.10
2023-07-29T07:34:34.655Z,27.30
2023-07-29T07:37:05.086Z,27.60
2023-07-29T07:39:35.197Z,27.80
2023-07-29T07:42:03.581Z,27.80
2023-07-29T07:44:31.785Z,27.90
2023-07-29T07:47:00.818Z,27.90
2023-07-29T07:49:30.727Z,28.00
2023-07-29T07:51:58.914Z,28.10
2023-07-29T07:54:27.293Z,28.10
2023-07-29T07:56:56.918Z,28.40
2023-07-29T07:59:25.088Z,28.80
2023-07-29T08:01:54.019Z,29.50
2023-07-29T08:04:22.262Z,30.00
2023-07-29T08:06:50.621Z,30.70
2023-07-29T08:09:18.819Z,31.10
2023-07-29T08:11:47.025Z,31.50
2023-07-29T08:14:16.713Z,31.60
2023-07-29T08:16:45.128Z,31.70
2023-07-29T08:19:13.491Z,31.70
2023-07-29T08:21:41.897Z,31.90
2023-07-29T08:24:10.077Z,31.90
2023-07-29T08:26:38.447Z,31.80
2023-07-29T08:29:06.787Z,31.60
2023-07-29T08:31:36.675Z,30.90
2023-07-29T08:34:04.939Z,30.80
2023-07-29T08:36:33.305Z,30.70
2023-07-29T08:39:01.545Z,30.60
2023-07-29T08:41:35.235Z,30.50
2023-07-29T08:44:14.287Z,30.30
2023-07-29T08:46:44.106Z,30.20
2023-07-29T08:49:15.507Z,30.10
2023-07-29T08:51:45.818Z,30.00
2023-07-29T08:54:14.416Z,29.90
2023-07-29T08:56:43.962Z,29.70
2023-07-29T08:59:13.128Z,29.60
2023-07-29T09:01:41.399Z,29.60
2023-07-29T09:04:11.142Z,29.40
2023-07-29T09:06:41.161Z,29.30
2023-07-29T09:09:10.328Z,29.10
2023-07-29T09:11:38.980Z,29.00
2023-07-29T09:14:07.208Z,28.80
2023-07-29T09:16:36.003Z,28.70
2023-07-29T09:19:06.104Z,28.60
2023-07-29T09:21:36.096Z,28.70
2023-07-29T09:24:06.282Z,28.80
2023-07-29T09:26:34.586Z,29.00
2023-07-29T09:29:02.902Z,29.20
2023-07-29T09:31:31.893Z,29.10
2023-07-29T09:34:01.008Z,29.20
2023-07-29T09:36:29.725Z,29.30
2023-07-29T09:38:59.946Z,29.20
2023-07-29T09:41:29.471Z,29.00
2023-07-29T09:43:59.852Z,28.80
2023-07-29T09:46:33.809Z,28.90
2023-07-29T09:49:03.659Z,28.90
2023-07-29T09:51:31.935Z,28.90
2023-07-29T09:54:05.199Z,29.00
2023-07-29T09:56:33.599Z,29.10
2023-07-29T09:59:03.709Z,29.10
2023-07-29T10:01:36.602Z,29.10
2023-07-29T10:04:06.527Z,29.00
2023-07-29T10:06:37.300Z,29.10
2023-07-29T10:09:09.049Z,29.20
2023-07-29T10:11:38.713Z,29.30
2023-07-29T10:14:09.129Z,29.30
2023-07-29T10:16:40.051Z,29.20
2023-07-29T10:19:09.793Z,29.20
2023-07-29T10:21:41.103Z,29.00
2023-07-29T10:24:17.954Z,28.80
2023-07-29T10:26:48.982Z,28.60
2023-07-29T10:29:21.464Z,28.30
2023-07-29T10:31:49.884Z,28.10
2023-07-29T10:34:18.222Z,28.00
2023-07-29T10:36:49.111Z,28.00
2023-07-29T10:39:18.842Z,27.90
2023-07-29T10:42:00.446Z,27.80
2023-07-29T10:44:54.392Z,27.90
2023-07-29T10:47:24.611Z,27.80
2023-07-29T10:49:55.473Z,27.40
2023-07-29T10:52:41.534Z,27.10
2023-07-29T10:55:27.404Z,26.80
2023-07-29T10:58:10.727Z,26.60
2023-07-29T11:00:39.130Z,26.30
2023-07-29T11:03:09.577Z,26.10
2023-07-29T11:05:46.402Z,26.00
2023-07-29T11:08:22.392Z,25.90
2023-07-29T11:11:09.933Z,25.90
2023-07-29T11:13:39.775Z,25.60
2023-07-29T11:16:08.601Z,25.30
2023-07-29T11:18:37.731Z,25.10
2023-07-29T11:21:06.748Z,25.10
2023-07-29T11:23:36.753Z,25.10
2023-07-29T11:26:05.891Z,25.10
2023-07-29T11:28:41.148Z,25.10
2023-07-29T11:31:09.749Z,25.20
2023-07-29T11:33:40.980Z,25.20
2023-07-29T11:36:19.323Z,25.20
2023-07-29T11:38:47.737Z,25.30
2023-07-29T11:41:22.038Z,25.40
2023-07-29T11:43:51.634Z,25.50
2023-07-29T11:46:24.077Z,25.50
2023-07-29T11:48:52.381Z,25.60
2023-07-29T11:51:20.560Z,25.70
2023-07-29T11:53:48.771Z,25.70
2023-07-29T11:56:16.929Z,25.70
2023-07-29T11:58:45.085Z,25.70
2023-07-29T12:01:15.617Z,25.70
2023-07-29T12:03:44.972Z,25.70
2023-07-29T12:06:13.404Z,25.70
2023-07-29T12:08:41.732Z,25.70
2023-07-29T12:11:10.920Z,25.70
2023-07-29T12:13:39.620Z,25.70
2023-07-29T12:16:07.721Z,25.80
2023-07-29T12:18:38.680Z,25.90
2023-07-29T12:21:06.991Z,25.90
2023-07-29T12:23:35.144Z,25.90
2023-07-29T12:26:03.372Z,25.90
2023-07-29T12:28:33.343Z,26.00
2023-07-29T12:31:01.643Z,26.10
2023-07-29T12:33:33.570Z,26.10
2023-07-29T12:36:03.599Z,26.20
2023-07-29T12:38:31.957Z,26.30
2023-07-29T12:41:00.193Z,26.50
2023-07-29T12:43:28.955Z,26.60
2023-07-29T12:45:59.007Z,26.70
2023-07-29T12:48:27.279Z,26.90
2023-07-29T12:50:55.443Z,27.00
2023-07-29T12:53:27.153Z,27.20
2023-07-29T12:55:55.393Z,27.30
2023-07-29T12:58:23.608Z,27.50
2023-07-29T13:00:51.890Z,27.60
2023-07-29T13:03:20.406Z,27.60
2023-07-29T13:05:48.799Z,27.60
2023-07-29T13:08:17.019Z,27.60
2023-07-29T13:10:46.869Z,27.60
2023-07-29T13:13:15.166Z,27.60
2023-07-29T13:15:43.504Z,27.50
2023-07-29T13:18:11.692Z,27.50
2023-07-29T13:20:39.858Z,27.50
2023-07-29T13:23:08.337Z,27.60
2023-07-29T13:25:36.485Z,27.50
2023-07-29T13:28:06.224Z,27.30
2023-07-29T13:30:34.485Z,27.30
2023-07-29T13:33:02.661Z,27.30
2023-07-29T13:35:33.229Z,27.40
2023-07-29T13:38:01.839Z,27.50
2023-07-29T13:40:30.243Z,27.60
2023-07-29T13:42:58.625Z,27.60
2023-07-29T13:45:28.425Z,27.70
2023-07-29T13:47:56.647Z,27.70
2023-07-29T13:50:25.009Z,27.70
2023-07-29T13:52:53.688Z,27.80
2023-07-29T13:55:21.973Z,27.90
2023-07-29T13:57:50.558Z,27.90
2023-07-29T14:00:19.000Z,28.00
2023-07-29T14:02:48.544Z,28.10
2023-07-29T14:05:17.226Z,28.20
2023-07-29T14:07:45.482Z,28.20
2023-07-29T14:10:13.669Z,28.20
2023-07-29T14:12:41.863Z,28.20
2023-07-29T14:15:10.823Z,28.10
2023-07-29T14:17:39.105Z,28.00
2023-07-29T14:20:09.900Z,28.00
2023-07-29T14:22:38.709Z,27.90
2023-07-29T14:25:08.918Z,27.90
2023-07-29T14:27:37.182Z,27.80
2023-07-29T14:30:10.311Z,27.90
2023-07-29T14:32:39.790Z,27.80
2023-07-29T14:35:10.464Z,27.80
2023-07-29T14:37:38.807Z,27.50
2023-07-29T14:40:08.438Z,27.50
2023-07-29T14:42:36.589Z,27.40
2023-07-29T14:45:05.368Z,27.40
2023-07-29T14:47:36.068Z,27.40
2023-07-29T14:50:04.683Z,27.40
2023-07-29T14:52:34.500Z,27.30
2023-07-29T14:55:02.739Z,27.20
2023-07-29T14:57:31.000Z,27.30
2023-07-29T14:59:59.219Z,27.30
2023-07-29T15:02:27.502Z,27.30
2023-07-29T15:04:55.816Z,27.20
2023-07-29T15:07:24.000Z,27.00
2023-07-29T15:09:53.785Z,26.90
2023-07-29T15:12:22.061Z,26.90
2023-07-29T15:14:50.287Z,26.80
2023-07-29T15:17:18.571Z,26.60
2023-07-29T15:19:50.886Z,26.40
2023-07-29T15:22:19.334Z,26.20
2023-07-29T15:24:47.611Z,26.10
2023-07-29T15:27:17.161Z,25.70
2023-07-29T15:29:45.743Z,25.10
2023-07-29T15:32:13.959Z,24.80
2023-07-29T15:34:42.120Z,24.70
2023-07-29T15:37:10.580Z,24.60
2023-07-29T15:39:40.282Z,24.40
2023-07-29T15:42:11.087Z,24.20
2023-07-29T15:44:40.563Z,24.10
2023-07-29T15:47:08.797Z,24.00
2023-07-29T15:49:36.955Z,24.00
2023-07-29T15:52:05.407Z,24.00
2023-07-29T15:54:33.720Z,24.00
2023-07-29T15:57:01.941Z,24.00
2023-07-29T15:59:30.246Z,24.10
2023-07-29T16:01:59.934Z,24.30
2023-07-29T16:04:28.333Z,24.50
2023-07-29T16:06:56.512Z,24.70
2023-07-29T16:09:24.720Z,24.80
2023-07-29T16:11:53.184Z,24.90
2023-07-29T16:14:21.710Z,24.90
2023-07-29T16:16:50.088Z,25.00
2023-07-29T16:19:28.723Z,25.10
2023-07-29T16:21:56.903Z,25.20
2023-07-29T16:24:25.077Z,25.10
2023-07-29T16:26:53.173Z,25.10
2023-07-29T16:29:21.407Z,25.10
2023-07-29T16:31:52.722Z,25.00
2023-07-29T16:34:22.736Z,25.00
2023-07-29T16:36:50.868Z,24.90
2023-07-29T16:39:19.009Z,24.90
2023-07-29T16:42:03.424Z,24.90
2023-07-29T16:44:33.502Z,24.90
2023-07-29T16:47:02.003Z,25.00
2023-07-29T16:49:31.864Z,25.00
2023-07-29T16:52:00.943Z,25.00
2023-07-29T16:54:29.577Z,24.90
2023-07-29T16:56:57.874Z,25.00
2023-07-29T16:59:26.314Z,24.90
2023-07-29T17:01:54.819Z,25.00
2023-07-29T17:04:23.043Z,25.00
2023-07-29T17:06:52.825Z,24.90
2023-07-29T17:09:21.431Z,25.00
2023-07-29T17:11:49.676Z,25.10
2023-07-29T17:14:19.923Z,25.10
2023-07-29T17:16:48.094Z,25.20
2023-07-29T17:19:16.424Z,25.10
2023-07-29T17:21:44.599Z,25.10
2023-07-29T17:24:14.082Z,25.20
2023-07-29T17:26:42.294Z,25.10
2023-07-29T17:29:10.540Z,25.00
2023-07-29T17:31:38.973Z,25.10
2023-07-29T17:34:07.258Z,25.10
2023-07-29T17:36:35.709Z,25.00
2023-07-29T17:39:04.162Z,25.00
2023-07-29T17:41:33.949Z,24.90
2023-07-29T17:44:02.107Z,25.00
2023-07-29T17:46:30.498Z,24.90
2023-07-29T17:48:58.718Z,24.90
2023-07-29T17:51:26.987Z,24.90
2023-07-29T17:53:55.222Z,24.90
2023-07-29T17:56:23.435Z,24.90
2023-07-29T17:58:53.231Z,24.80
2023-07-29T18:01:21.527Z,24.80
2023-07-29T18:03:49.747Z,24.80
2023-07-29T18:06:19.059Z,24.80
2023-07-29T18:08:47.270Z,24.70
2023-07-29T18:11:17.582Z,24.70
2023-07-29T18:13:45.759Z,24.60
2023-07-29T18:16:20.656Z,24.60
2023-07-29T18:18:49.726Z,24.60
2023-07-29T18:21:18.151Z,24.50
2023-07-29T18:23:46.301Z,24.50
2023-07-29T18:26:14.849Z,24.40
2023-07-29T18:28:43.287Z,24.30
2023-07-29T18:31:12.398Z,24.30
2023-07-29T18:33:41.970Z,24.20
2023-07-29T18:36:10.176Z,24.20
2023-07-29T18:38:38.380Z,24.10
2023-07-29T18:41:06.783Z,24.10
2023-07-29T18:43:34.873Z,24.00
2023-07-29T18:46:03.382Z,24.00
2023-07-29T18:48:31.526Z,23.90
2023-07-29T18:51:01.776Z,23.80
2023-07-29T18:53:30.365Z,23.80
2023-07-29T18:55:58.786Z,23.70
2023-07-29T18:58:26.902Z,23.70
2023-07-29T19:00:55.351Z,23.60
2023-07-29T19:03:26.239Z,23.60
2023-07-29T19:05:58.112Z,23.60
2023-07-29T19:08:28.109Z,23.50
2023-07-29T19:10:56.314Z,23.50
2023-07-29T19:13:24.577Z,23.50
2023-07-29T19:15:55.183Z,23.40
2023-07-29T19:18:23.783Z,23.40
2023-07-29T19:20:52.824Z,23.40
2023-07-29T19:23:22.275Z,23.30
2023-07-29T19:25:53.211Z,23.30
2023-07-29T19:28:21.423Z,23.20
2023-07-29T19:30:49.611Z,23.20
2023-07-29T19:33:17.811Z,23.10
2023-07-29T19:35:45.941Z,23.10
2023-07-29T19:38:14.191Z,23.00
2023-07-29T19:40:42.342Z,23.00
2023-07-29T19:43:11.892Z,23.00
2023-07-29T19:45:40.154Z,22.90
2023-07-29T19:48:08.515Z,22.90
2023-07-29T19:50:37.054Z,22.80
2023-07-29T19:53:05.248Z,22.80
2023-07-29T19:55:33.512Z,22.70
2023-07-29T19:58:01.983Z,22.70
2023-07-29T20:00:32.697Z,22.60
2023-07-29T20:03:00.920Z,22.60
2023-07-29T20:05:29.746Z,22.60
2023-07-29T20:07:57.964Z,22.50
2023-07-29T20:10:28.120Z,22.50
2023-07-29T20:12:56.612Z,22.50
2023-07-29T20:15:25.481Z,22.40
2023-07-29T20:17:55.252Z,22.40
2023-07-29T20:20:23.813Z,22.40
2023-07-29T20:22:52.133Z,22.30
2023-07-29T20:25:20.293Z,22.30
2023-07-29T20:27:48.511Z,22.30
2023-07-29T20:30:17.134Z,22.30
2023-07-29T20:32:45.498Z,22.20
2023-07-29T20:35:15.725Z,22.20
2023-07-29T20:37:44.230Z,22.20
2023-07-29T20:40:13.857Z,22.20
2023-07-29T20:42:42.129Z,22.20
2023-07-29T20:45:11.536Z,22.10
2023-07-29T20:47:40.285Z,22.10
2023-07-29T20:50:09.377Z,22.10
2023-07-29T20:52:39.332Z,22.10
2023-07-29T20:55:08.467Z,22.10
2023-07-29T20:57:36.658Z,22.10
2023-07-29T21:00:05.449Z,22.00
2023-07-29T21:02:33.746Z,22.00
2023-07-29T21:05:01.918Z,22.00
2023-07-29T21:07:30.205Z,22.00
2023-07-29T21:09:59.732Z,22.00
2023-07-29T21:12:27.868Z,22.10
2023-07-29T21:14:56.040Z,22.10
2023-07-29T21:17:24.301Z,22.10
2023-07-29T21:19:52.988Z,22.10
2023-07-29T21:22:21.255Z,22.10
2023-07-29T21:24:49.595Z,22.10
2023-07-29T21:27:20.005Z,22.10
2023-07-29T21:29:48.544Z,22.10
2023-07-29T21:32:16.840Z,22.10
2023-07-29T21:34:45.438Z,22.10
2023-07-29T21:37:21.810Z,22.10
2023-07-29T21:39:59.466Z,22.20
2023-07-29T21:42:29.334Z,22.10
2023-07-29T21:44:57.500Z,22.10
2023-07-29T21:47:25.721Z,22.10
2023-07-29T21:49:55.025Z,22.10
2023-07-29T21:52:23.369Z,22.20
2023-07-29T21:54:51.990Z,22.10
2023-07-29T21:57:20.337Z,22.10
2023-07-29T21:59:49.915Z,22.20
2023-07-29T22:02:18.868Z,22.10
2023-07-29T22:04:47.182Z,22.10
2023-07-29T22:07:16.385Z,22.10
2023-07-29T22:09:44.720Z,22.10
2023-07-29T22:12:12.915Z,22.10
2023-07-29T22:14:41.045Z,22.10
2023-07-29T22:17:10.603Z,22.10
2023-07-29T22:19:38.764Z,22.10
2023-07-29T22:22:07.237Z,22.10
2023-07-29T22:24:35.414Z,22.10
2023-07-29T22:27:04.189Z,22.10
2023-07-29T22:29:32.568Z,22.00
2023-07-29T22:32:00.760Z,22.00
2023-07-29T22:34:30.282Z,22.00
2023-07-29T22:36:58.401Z,21.90
2023-07-29T22:39:26.649Z,21.90
2023-07-29T22:41:54.788Z,21.80
2023-07-29T22:44:22.906Z,21.80
2023-07-29T22:46:51.047Z,21.80
2023-07-29T22:49:19.176Z,21.70
2023-07-29T22:51:48.687Z,21.70
2023-07-29T22:54:17.032Z,21.70
2023-07-29T22:56:45.191Z,21.70
2023-07-29T22:59:13.341Z,21.60
2023-07-29T23:01:41.648Z,21.60
2023-07-29T23:04:09.895Z,21.60
2023-07-29T23:06:38.337Z,21.50
2023-07-29T23:09:08.234Z,21.50
2023-07-29T23:11:36.530Z,21.50
2023-07-29T23:14:05.310Z,21.40
2023-07-29T23:16:33.758Z,21.40
2023-07-29T23:19:01.993Z,21.40
2023-07-29T23:21:30.110Z,21.30
2023-07-29T23:23:58.299Z,21.30
2023-07-29T23:26:27.806Z,21.20
2023-07-29T23:28:56.004Z,21.20
2023-07-29T23:31:24.509Z,21.20
2023-07-29T23:33:52.761Z,21.10
2023-07-29T23:36:20.997Z,21.10
2023-07-29T23:38:49.149Z,21.10
2023-07-29T23:41:17.271Z,21.00
2023-07-29T23:43:46.774Z,20.90
2023-07-29T23:46:15.198Z,20.90
2023-07-29T23:48:43.309Z,20.80
2023-07-29T23:51:11.501Z,20.90
2023-07-29T23:53:39.631Z,20.80
2023-07-29T23:56:07.718Z,20.80
2023-07-29T23:58:36.271Z,20.80
